Time;durP1;ratioP1;P1;durP2;ratioP2;P2;SDS_P1;SDS_P2;PMS_P1;PMS_P2;Temp;Humidity;BMP_temperature;BMP_pressure;BME280_temperature;BME280_humidity;BME280_pressure;Samples;Min_cycle;Max_cycle;Signal;HPM_P1;HPM_P2
2023/06/09 00:01:16;;;;;;;;;16.75;16.75;;;;;22.08;60.77;98678.81;5095582;27;45522;-65
2023/06/09 00:03:42;;;;;;;;;19.75;19.75;;;;;22.08;61.17;98678.81;5072717;27;45498;-65
2023/06/09 00:06:08;;;;;;;;;21.50;18.75;;;;;22.04;61.09;98672.03;5094312;27;45534;-65
2023/06/09 00:08:35;;;;;;;;;22.25;18.50;;;;;22.03;61.22;98671.16;5091135;27;45475;-65
2023/06/09 00:11:01;;;;;;;;;20.50;18.25;;;;;22.01;61.40;98673.16;5092022;27;46587;-65
2023/06/09 00:13:27;;;;;;;;;18.50;17.25;;;;;21.98;61.11;98665.34;5091407;27;46019;-65
2023/06/09 00:15:52;;;;;;;;;20.75;18.75;;;;;21.96;61.55;98661.94;5085370;27;45571;-65
2023/06/09 00:18:18;;;;;;;;;17.50;17.50;;;;;21.95;61.15;98669.16;5092077;27;45501;-65
2023/06/09 00:20:44;;;;;;;;;15.75;14.75;;;;;21.93;61.22;98657.75;5073754;27;46417;-65
2023/06/09 00:23:09;;;;;;;;;20.50;20.00;;;;;21.90;62.08;98662.56;5085194;27;45446;-65
2023/06/09 00:25:35;;;;;;;;;21.00;19.25;;;;;21.85;61.90;98665.66;5095744;27;45446;-66
2023/06/09 00:28:01;;;;;;;;;20.50;20.00;;;;;21.81;62.57;98660.72;5071295;27;45581;-65
2023/06/09 00:30:26;;;;;;;;;16.50;16.25;;;;;21.77;62.39;98657.50;5090115;27;48198;-65
2023/06/09 00:32:51;;;;;;;;;17.25;17.00;;;;;21.75;61.99;98658.63;5094014;27;45415;-65
2023/06/09 00:35:17;;;;;;;;;18.25;18.25;;;;;21.75;62.09;98662.16;5092482;27;45459;-65
2023/06/09 00:37:42;;;;;;;;;18.00;18.00;;;;;21.72;61.81;98654.38;5094638;27;45569;-65
2023/06/09 00:40:08;;;;;;;;;16.50;16.50;;;;;21.69;62.69;98648.44;5087515;27;45376;-65
2023/06/09 00:42:34;;;;;;;;;17.75;17.25;;;;;21.68;62.83;98650.28;5098008;27;45376;-65
2023/06/09 00:45:00;;;;;;;;;18.25;15.75;;;;;21.68;62.59;98655.66;5089313;27;45679;-65
2023/06/09 00:47:26;;;;;;;;;20.75;20.50;;;;;21.66;63.04;98649.56;5071027;27;45437;-65
2023/06/09 00:49:52;;;;;;;;;15.25;15.25;;;;;21.63;62.77;98649.84;5064259;27;46784;-65
2023/06/09 00:52:18;;;;;;;;;19.00;19.00;;;;;21.60;62.50;98647.47;5077891;27;45549;-65
2023/06/09 00:54:44;;;;;;;;;19.75;19.75;;;;;21.58;62.78;98654.81;5091046;27;45597;-65
2023/06/09 00:57:12;;;;;;;;;17.50;17.00;;;;;21.55;63.29;98645.22;5075600;27;45667;-65
2023/06/09 00:59:37;;;;;;;;;22.50;21.50;;;;;21.53;63.15;98651.72;5078751;27;46409;-65
2023/06/09 01:02:04;;;;;;;;;19.75;19.00;;;;;21.49;63.59;98650.28;5098061;27;45332;-65
2023/06/09 01:04:34;;;;;;;;;18.75;18.75;;;;;21.46;63.23;98643.38;5077261;27;45490;-65
2023/06/09 01:07:20;;;;;;;;;21.75;20.75;;;;;21.49;63.40;98636.88;5081690;27;45548;-65
2023/06/09 01:09:55;;;;;;;;;20.50;18.00;;;;;21.49;63.05;98628.84;5088543;27;45593;-65
2023/06/09 01:12:36;;;;;;;;;22.75;20.50;;;;;21.49;63.67;98631.53;5092954;27;45356;-65
2023/06/09 01:15:05;;;;;;;;;19.75;19.75;;;;;21.45;63.34;98633.63;5090651;27;45428;-66
2023/06/09 01:17:33;;;;;;;;;20.75;18.50;;;;;21.41;64.12;98626.88;5093557;27;45481;-65
2023/06/09 01:20:04;;;;;;;;;19.00;18.75;;;;;21.38;63.94;98620.94;5074634;27;47548;-65
2023/06/09 01:22:35;;;;;;;;;17.25;17.25;;;;;21.35;63.72;98623.91;5100567;27;45517;-65
2023/06/09 01:25:24;;;;;;;;;17.50;16.50;;;;;21.34;64.17;98624.88;5090312;27;45586;-65
2023/06/09 01:27:51;;;;;;;;;18.00;17.25;;;;;21.32;63.81;98619.66;5066617;27;45400;-65
2023/06/09 01:30:18;;;;;;;;;23.75;20.00;;;;;21.30;64.54;98627.00;5093198;27;45657;-65
2023/06/09 01:32:45;;;;;;;;;17.50;16.50;;;;;21.28;64.28;98615.59;5093733;27;45424;-65
2023/06/09 01:35:11;;;;;;;;;19.75;19.00;;;;;21.27;64.50;98623.78;5093688;27;45471;-65
2023/06/09 01:37:37;;;;;;;;;17.25;15.75;;;;;21.26;64.88;98612.22;5095224;27;45404;-65
2023/06/09 01:40:05;;;;;;;;;25.00;20.25;;;;;21.26;64.62;98609.53;5072481;27;46460;-65
2023/06/09 01:42:30;;;;;;;;;17.75;16.50;;;;;21.26;64.51;98606.00;5071146;27;45461;-65
2023/06/09 01:44:56;;;;;;;;;19.00;17.75;;;;;21.24;64.71;98608.81;5101389;27;45440;-65
2023/06/09 01:47:21;;;;;;;;;18.25;17.00;;;;;21.22;65.04;98613.47;5089920;27;45402;-65
2023/06/09 01:50:01;;;;;;;;;18.50;17.00;;;;;21.19;64.93;98616.38;5087615;27;45479;-65
2023/06/09 01:52:41;;;;;;;;;18.75;17.50;;;;;21.15;64.65;98620.34;5075528;27;45442;-65
2023/06/09 01:55:17;;;;;;;;;16.50;16.50;;;;;21.11;65.34;98619.78;5073613;27;45986;-65
2023/06/09 01:57:56;;;;;;;;;18.50;18.50;;;;;21.08;65.44;98611.19;5089029;27;45443;-66
2023/06/09 02:00:26;;;;;;;;;21.25;20.25;;;;;21.03;65.82;98614.25;5088784;27;45407;-65
2023/06/09 02:02:57;;;;;;;;;17.00;16.20;;;;;20.98;65.64;98608.47;5075316;27;45461;-65
2023/06/09 02:05:23;;;;;;;;;21.50;19.50;;;;;20.94;65.99;98608.91;5085064;27;45558;-65
2023/06/09 02:07:53;;;;;;;;;22.25;21.25;;;;;20.93;65.71;98615.25;5085641;27;45408;-65
2023/06/09 02:10:22;;;;;;;;;18.00;15.25;;;;;20.94;65.97;98608.91;5073625;27;47079;-65
2023/06/09 02:12:48;;;;;;;;;18.50;17.50;;;;;20.94;66.06;98612.44;5081804;27;45309;-65
2023/06/09 02:15:13;;;;;;;;;16.25;16.00;;;;;20.93;65.83;98608.06;5086256;27;45594;-65
2023/06/09 02:17:42;;;;;;;;;21.00;18.75;;;;;20.93;66.41;98608.06;5093436;27;45572;-65
2023/06/09 02:20:09;;;;;;;;;21.00;19.00;;;;;20.93;66.04;98609.88;5086424;27;46542;-65
2023/06/09 02:22:35;;;;;;;;;18.20;17.40;;;;;20.90;66.33;98613.69;5092980;27;45371;-65
2023/06/09 02:25:04;;;;;;;;;18.00;17.75;;;;;20.88;66.58;98619.19;5073895;27;45448;-65
2023/06/09 02:27:30;;;;;;;;;18.50;16.75;;;;;20.87;66.49;98619.31;5088481;27;45728;-66
2023/06/09 02:29:55;;;;;;;;;22.00;20.75;;;;;20.87;66.80;98620.16;5085527;27;46290;-65
2023/06/09 02:32:20;;;;;;;;;18.75;16.75;;;;;20.87;66.53;98622.00;5093995;27;45460;-65
2023/06/09 02:34:46;;;;;;;;;17.25;17.25;;;;;20.86;66.90;98629.19;5065129;27;45467;-65
2023/06/09 02:37:12;;;;;;;;;23.50;20.00;;;;;20.85;66.68;98624.81;5082134;27;45543;-65
2023/06/09 02:39:37;;;;;;;;;18.50;16.50;;;;;20.86;66.82;98623.84;5090355;27;45502;-65
2023/06/09 02:42:03;;;;;;;;;19.50;18.75;;;;;20.86;66.73;98626.50;5088135;27;45492;-66
2023/06/09 02:44:31;;;;;;;;;20.75;17.25;;;;;20.88;67.04;98629.06;5083622;27;45363;-65
2023/06/09 02:46:57;;;;;;;;;24.50;18.50;;;;;20.90;67.17;98624.41;5074952;27;45448;-65
2023/06/09 02:49:22;;;;;;;;;19.50;17.25;;;;;20.89;66.56;98623.56;5083196;27;46578;-65
2023/06/09 02:51:48;;;;;;;;;19.50;18.50;;;;;20.87;67.07;98628.22;5094548;27;45337;-65
2023/06/09 02:54:13;;;;;;;;;19.75;18.50;;;;;20.88;67.21;98643.31;5091694;27;45407;-66
2023/06/09 02:56:38;;;;;;;;;25.25;19.50;;;;;20.88;67.64;98642.47;5094551;27;45574;-65
2023/06/09 02:59:05;;;;;;;;;22.25;20.00;;;;;20.88;67.30;98637.94;5089182;27;45799;-65
2023/06/09 03:01:34;;;;;;;;;20.50;18.00;;;;;20.89;66.96;98630.75;5096020;27;45551;-65
2023/06/09 03:04:02;;;;;;;;;20.75;20.50;;;;;20.87;67.26;98638.09;5092647;27;45496;-65
2023/06/09 03:06:29;;;;;;;;;19.00;18.00;;;;;20.81;67.27;98628.75;5097604;27;45565;-65
2023/06/09 03:08:54;;;;;;;;;21.00;20.50;;;;;20.77;67.81;98626.50;5089774;27;45567;-64
2023/06/09 03:11:20;;;;;;;;;17.75;16.75;;;;;20.72;68.25;98626.91;5096780;27;45441;-64
2023/06/09 03:13:45;;;;;;;;;20.25;18.75;;;;;20.71;68.34;98627.03;5088787;27;45655;-64
2023/06/09 03:16:11;;;;;;;;;21.50;20.25;;;;;20.68;67.97;98627.31;5091379;27;45549;-64
2023/06/09 03:18:37;;;;;;;;;19.50;18.50;;;;;20.64;68.47;98629.41;5091180;27;45623;-65
2023/06/09 03:21:04;;;;;;;;;22.20;20.20;;;;;20.62;68.12;98628.69;5078330;27;45776;-65
2023/06/09 03:23:31;;;;;;;;;20.75;18.75;;;;;20.59;68.78;98617.44;5070289;27;45357;-65
2023/06/09 03:25:57;;;;;;;;;22.75;20.00;;;;;20.55;68.01;98628.41;5091645;27;45427;-65
2023/06/09 03:28:23;;;;;;;;;20.75;19.25;;;;;20.53;68.58;98619.66;5093433;27;45530;-64
2023/06/09 03:30:48;;;;;;;;;21.00;19.25;;;;;20.53;68.87;98614.31;5090404;27;45458;-65
2023/06/09 03:33:15;;;;;;;;;20.50;18.25;;;;;20.54;68.50;98625.88;5077884;27;45488;-65
2023/06/09 03:35:40;;;;;;;;;23.00;21.25;;;;;20.54;68.34;98613.31;5078498;27;45609;-65
2023/06/09 03:38:05;;;;;;;;;19.50;18.75;;;;;20.54;68.50;98612.47;5094805;27;46363;-65
2023/06/09 03:40:31;;;;;;;;;16.00;15.75;;;;;20.51;68.77;98613.59;5067018;27;45427;-65
2023/06/09 03:42:56;;;;;;;;;18.25;17.50;;;;;20.52;68.59;98611.75;5095928;27;45403;-65
2023/06/09 03:45:22;;;;;;;;;16.75;16.75;;;;;20.51;68.04;98615.41;5090553;27;45393;-65
2023/06/09 03:47:47;;;;;;;;;20.25;19.50;;;;;20.52;68.36;98617.13;5094908;27;46073;-65
2023/06/09 03:50:13;;;;;;;;;23.00;16.75;;;;;20.50;68.11;98614.56;5090963;27;45444;-65
2023/06/09 03:52:38;;;;;;;;;21.75;20.25;;;;;20.52;68.32;98611.75;5078083;27;45414;-65
2023/06/09 03:55:04;;;;;;;;;18.25;18.25;;;;;20.48;68.33;98615.69;5076266;27;45441;-65
2023/06/09 03:57:30;;;;;;;;;18.75;18.25;;;;;20.43;68.58;98610.75;5095086;27;45375;-66
2023/06/09 03:59:55;;;;;;;;;20.50;19.50;;;;;20.38;68.98;98615.66;5071302;27;45491;-65
2023/06/09 04:02:20;;;;;;;;;17.25;17.00;;;;;20.34;69.07;98614.22;5095409;27;45944;-65
2023/06/09 04:04:47;;;;;;;;;19.50;18.00;;;;;20.34;68.61;98619.56;5092025;27;45467;-65
2023/06/09 04:07:14;;;;;;;;;19.50;19.25;;;;;20.35;68.54;98629.28;5096023;27;46796;-65
2023/06/09 04:09:41;;;;;;;;;20.00;18.25;;;;;20.35;68.54;98631.13;5092771;27;45609;-64
2023/06/09 04:12:07;;;;;;;;;17.00;16.00;;;;;20.34;68.65;98629.41;5077312;27;45487;-65
2023/06/09 04:14:33;;;;;;;;;14.00;13.25;;;;;20.36;68.46;98632.81;5090479;27;45423;-65
2023/06/09 04:17:00;;;;;;;;;20.00;18.25;;;;;20.37;68.43;98629.19;5076207;27;47094;-65
2023/06/09 04:19:25;;;;;;;;;23.75;22.75;;;;;20.37;68.56;98629.19;5091942;27;45502;-65
2023/06/09 04:21:51;;;;;;;;;21.75;20.00;;;;;20.38;67.92;98638.91;5093629;27;45426;-65
2023/06/09 04:24:16;;;;;;;;;21.00;21.00;;;;;20.41;68.07;98639.50;5104285;27;45502;-65
2023/06/09 04:26:44;;;;;;;;;22.50;21.50;;;;;20.45;68.32;98638.22;5090238;27;45483;-65
2023/06/09 04:29:09;;;;;;;;;22.50;22.50;;;;;20.53;67.54;98629.53;5092981;27;45455;-65
2023/06/09 04:31:39;;;;;;;;;22.00;17.75;;;;;20.59;67.46;98629.00;5096180;27;45400;-65
2023/06/09 04:34:10;;;;;;;;;20.50;19.75;;;;;20.63;67.47;98641.09;5074125;27;45536;-65
2023/06/09 04:36:36;;;;;;;;;18.25;16.75;;;;;20.70;67.73;98639.59;5091198;27;46291;-65
2023/06/09 04:39:03;;;;;;;;;22.80;18.60;;;;;20.75;67.12;98639.19;5093553;27;45389;-65
2023/06/09 04:41:31;;;;;;;;;18.50;17.75;;;;;20.81;67.03;98642.16;5072672;27;45374;-65
2023/06/09 04:44:03;;;;;;;;;20.75;19.00;;;;;20.88;66.55;98645.97;5090320;27;45518;-65
2023/06/09 04:46:29;;;;;;;;;18.50;17.75;;;;;20.91;66.41;98644.88;5090811;27;47281;-65
2023/06/09 04:48:54;;;;;;;;;23.00;19.50;;;;;20.94;65.89;98641.06;5088050;27;45374;-65
2023/06/09 04:51:24;;;;;;;;;18.25;18.00;;;;;20.98;66.05;98643.31;5084617;27;45448;-65
2023/06/09 04:53:49;;;;;;;;;21.50;20.50;;;;;21.02;65.97;98644.72;5089206;27;45692;-65
2023/06/09 04:56:16;;;;;;;;;21.75;19.75;;;;;21.11;65.94;98648.44;5093830;27;46262;-65
2023/06/09 04:58:42;;;;;;;;;21.75;19.25;;;;;21.16;65.66;98654.19;5089650;27;45490;-65
2023/06/09 05:01:07;;;;;;;;;22.75;22.75;;;;;21.17;65.24;98659.44;5087991;27;45509;-65
2023/06/09 05:03:33;;;;;;;;;19.75;18.75;;;;;21.18;65.13;98660.28;5092599;27;45566;-65
2023/06/09 05:05:59;;;;;;;;;18.00;16.75;;;;;21.17;65.10;98659.44;5088887;27;45374;-65
2023/06/09 05:08:25;;;;;;;;;21.75;15.75;;;;;21.16;64.86;98656.88;5092042;27;45352;-65
2023/06/09 05:10:52;;;;;;;;;19.50;17.50;;;;;21.11;64.87;98654.63;5091108;27;45598;-65
2023/06/09 05:13:17;;;;;;;;;16.50;13.50;;;;;21.12;65.54;98661.66;5092798;27;45332;-65
2023/06/09 05:15:43;;;;;;;;;15.25;14.75;;;;;21.14;65.52;98661.53;5087518;27;46098;-72
2023/06/09 05:18:08;;;;;;;;;21.75;21.75;;;;;21.18;65.43;98666.47;5091623;27;45400;-69
2023/06/09 05:20:33;;;;;;;;;19.25;18.75;;;;;21.21;65.38;98658.19;5088938;27;45620;-69
2023/06/09 05:22:59;;;;;;;;;19.75;19.00;;;;;21.25;65.01;98656.09;5092581;27;45584;-69
2023/06/09 05:25:25;;;;;;;;;18.75;18.25;;;;;21.27;65.23;98654.13;5082429;27;46296;-69
2023/06/09 05:27:50;;;;;;;;;19.25;18.25;;;;;21.31;64.76;98655.50;5107606;27;45465;-68
2023/06/09 05:30:16;;;;;;;;;18.25;15.50;;;;;21.33;64.72;98652.69;5094289;27;46050;-69
2023/06/09 05:32:41;;;;;;;;;20.00;19.25;;;;;21.33;64.58;98648.19;5093747;27;45481;-69
2023/06/09 05:35:07;;;;;;;;;23.00;19.00;;;;;21.33;64.58;98645.50;5088149;27;46438;-70
2023/06/09 05:37:32;;;;;;;;;18.50;17.50;;;;;21.39;64.90;98649.47;5093665;27;45428;-70
2023/06/09 05:39:57;;;;;;;;;19.25;17.25;;;;;21.44;64.44;98647.22;5093530;27;45618;-69
2023/06/09 05:42:23;;;;;;;;;19.25;16.75;;;;;21.48;64.34;98651.28;5093800;27;45432;-69
2023/06/09 05:44:48;;;;;;;;;20.75;17.75;;;;;21.54;64.64;98645.34;5088313;27;46227;-68
2023/06/09 05:47:15;;;;;;;;;17.25;16.25;;;;;21.61;63.55;98641.13;5088720;27;45386;-68
2023/06/09 05:49:40;;;;;;;;;20.00;19.00;;;;;21.63;63.82;98644.50;5086282;27;45709;-69
2023/06/09 05:52:06;;;;;;;;;12.75;12.75;;;;;21.66;63.83;98644.22;5094213;27;45459;-69
2023/06/09 05:54:32;;;;;;;;;18.50;18.50;;;;;21.70;63.69;98652.81;5089029;27;45440;-70
2023/06/09 05:56:57;;;;;;;;;21.50;18.75;;;;;21.73;63.38;98644.50;5093793;27;45466;-70
2023/06/09 05:59:23;;;;;;;;;17.25;17.25;;;;;21.77;63.63;98641.41;5085333;27;45877;-67
2023/06/09 06:01:49;;;;;;;;;20.25;18.00;;;;;21.84;63.44;98644.31;5083151;27;45408;-72
2023/06/09 06:04:15;;;;;;;;;19.50;18.25;;;;;21.89;63.13;98644.75;5080906;27;46238;-72
2023/06/09 06:06:40;;;;;;;;;21.75;20.00;;;;;21.96;62.87;98648.53;5092626;27;45555;-72
2023/06/09 06:09:06;;;;;;;;;17.50;17.25;;;;;21.99;62.36;98648.25;5075425;27;45501;-72
2023/06/09 06:11:31;;;;;;;;;19.00;17.50;;;;;21.98;62.69;98651.91;5093267;27;45658;-73
2023/06/09 06:13:57;;;;;;;;;19.50;18.00;;;;;22.01;62.83;98650.81;5086596;27;46285;-71
2023/06/09 06:16:22;;;;;;;;;22.50;18.00;;;;;22.05;62.84;98653.09;5093142;27;45527;-73
2023/06/09 06:18:48;;;;;;;;;18.75;17.50;;;;;22.12;62.14;98648.00;5085443;27;45290;-72
2023/06/09 06:21:13;;;;;;;;;17.00;16.00;;;;;22.15;62.09;98650.34;5072427;27;45619;-73
2023/06/09 06:23:39;;;;;;;;;20.75;20.75;;;;;22.16;62.22;98650.22;5084010;27;45933;-72
2023/06/09 06:26:05;;;;;;;;;19.75;19.25;;;;;22.17;61.88;98653.75;5074189;27;45490;-71
2023/06/09 06:28:30;;;;;;;;;20.50;18.00;;;;;22.21;61.67;98658.69;5093686;27;45471;-71
2023/06/09 06:30:56;;;;;;;;;18.75;18.25;;;;;22.24;61.89;98654.88;5078763;27;45381;-72
2023/06/09 06:33:21;;;;;;;;;21.00;17.75;;;;;22.29;61.84;98666.84;5084463;27;48205;-72
2023/06/09 06:35:47;;;;;;;;;25.50;21.50;;;;;22.31;61.21;98664.00;5091293;27;45416;-71
2023/06/09 06:38:12;;;;;;;;;19.50;17.75;;;;;22.29;61.68;98668.69;5090932;27;45993;-71
2023/06/09 06:40:37;;;;;;;;;18.00;17.00;;;;;22.29;61.62;98666.00;5089590;27;45478;-72
2023/06/09 06:43:03;;;;;;;;;18.25;16.50;;;;;22.29;61.46;98674.91;5095455;27;45549;-72
2023/06/09 06:45:28;;;;;;;;;20.00;18.25;;;;;22.35;61.86;98675.31;5084223;27;45437;-72
2023/06/09 06:47:54;;;;;;;;;23.00;19.25;;;;;22.37;61.45;98679.56;5090875;27;45405;-72
2023/06/09 06:50:20;;;;;;;;;22.75;19.75;;;;;22.40;61.58;98681.97;5086569;27;45475;-72
2023/06/09 06:52:48;;;;;;;;;21.50;20.00;;;;;22.42;61.42;98679.97;5095916;27;46074;-71
2023/06/09 06:55:14;;;;;;;;;24.50;19.75;;;;;22.43;61.24;98673.59;5092952;27;45353;-70
2023/06/09 06:57:40;;;;;;;;;20.00;18.25;;;;;22.44;61.21;98678.00;5094700;27;45580;-71
2023/06/09 07:00:13;;;;;;;;;18.00;18.00;;;;;22.37;61.55;98676.88;5089608;27;45569;-71
2023/06/09 07:02:39;;;;;;;;;21.75;19.50;;;;;22.31;61.29;98681.97;5092431;27;45676;-71
2023/06/09 07:05:06;;;;;;;;;21.00;20.00;;;;;22.30;61.75;98683.81;5075714;27;45560;-72
2023/06/09 07:07:32;;;;;;;;;24.75;23.75;;;;;22.25;61.21;98689.63;5073078;27;45434;-72
2023/06/09 07:09:57;;;;;;;;;21.25;21.25;;;;;22.24;61.88;98684.41;5086565;27;45496;-71
2023/06/09 07:12:23;;;;;;;;;20.75;19.50;;;;;22.25;61.77;98695.00;5058500;27;46164;-64
2023/06/09 07:14:48;;;;;;;;;19.75;17.50;;;;;22.27;61.99;98692.19;5085424;27;45420;-64
2023/06/09 07:17:14;;;;;;;;;17.00;16.00;;;;;22.25;62.84;98696.84;5069428;27;45408;-64
2023/06/09 07:19:39;;;;;;;;;21.00;19.50;;;;;22.20;63.07;98693.75;5104195;27;45558;-65
2023/06/09 07:22:05;;;;;;;;;21.50;21.00;;;;;22.15;63.15;98702.22;5065782;27;47985;-65
2023/06/09 07:24:31;;;;;;;;;18.75;18.75;;;;;22.12;63.13;98701.69;5089191;27;45899;-65
2023/06/09 07:26:56;;;;;;;;;20.00;18.25;;;;;22.06;63.61;98700.41;5093631;27;45503;-65
2023/06/09 07:29:21;;;;;;;;;19.00;18.00;;;;;22.07;64.24;98695.91;5087965;27;45488;-65
2023/06/09 07:31:47;;;;;;;;;21.50;20.25;;;;;22.10;64.18;98692.94;5086188;27;46163;-65
2023/06/09 07:34:15;;;;;;;;;17.00;15.75;;;;;22.12;64.11;98693.63;5081328;27;45540;-65
2023/06/09 07:36:41;;;;;;;;;17.50;16.75;;;;;22.11;63.84;98692.78;5070002;27;45549;-65
2023/06/09 07:39:07;;;;;;;;;21.25;19.00;;;;;22.11;63.56;98694.63;5082810;27;45700;-65
2023/06/09 07:41:33;;;;;;;;;16.25;16.25;;;;;22.15;63.93;98691.47;5089002;27;46542;-65
2023/06/09 07:43:59;;;;;;;;;19.50;18.75;;;;;22.16;63.93;98695.88;5084412;27;45577;-65
2023/06/09 07:46:25;;;;;;;;;20.25;20.00;;;;;22.21;64.24;98695.44;5083435;27;45592;-65
2023/06/09 07:48:50;;;;;;;;;18.75;17.75;;;;;22.25;63.85;98691.47;5069464;27;45560;-64
2023/06/09 07:51:16;;;;;;;;;18.50;14.00;;;;;22.29;63.53;98698.22;5084225;27;45498;-66
2023/06/09 07:53:46;;;;;;;;;19.00;15.60;;;;;22.35;63.25;98705.72;5091502;27;45500;-65
2023/06/09 07:56:11;;;;;;;;;18.00;17.25;;;;;22.42;63.00;98700.63;5083622;27;45392;-65
2023/06/09 07:58:37;;;;;;;;;18.00;15.75;;;;;22.49;63.56;98694.50;5089855;27;45432;-65
2023/06/09 08:01:03;;;;;;;;;20.25;17.75;;;;;22.57;63.08;98688.41;5081842;27;45357;-65
2023/06/09 08:03:34;;;;;;;;;19.20;18.20;;;;;22.67;63.38;98699.09;5087849;27;45401;-65
2023/06/09 08:06:01;;;;;;;;;18.00;17.00;;;;;22.76;62.94;98696.38;5089452;27;45410;-65
2023/06/09 08:08:28;;;;;;;;;18.00;16.50;;;;;22.83;62.39;98697.50;5104347;27;45527;-65
2023/06/09 08:10:54;;;;;;;;;16.50;16.50;;;;;22.91;62.82;98699.44;5084975;27;45489;-65
2023/06/09 08:13:19;;;;;;;;;18.25;17.25;;;;;22.99;62.42;98691.47;5091906;27;45492;-65
2023/06/09 08:15:45;;;;;;;;;21.00;19.25;;;;;23.08;62.16;98689.72;5090897;27;45526;-65
2023/06/09 08:18:10;;;;;;;;;21.75;20.50;;;;;23.17;61.98;98686.97;5092125;27;45448;-65
2023/06/09 08:20:36;;;;;;;;;23.75;22.25;;;;;23.26;61.89;98682.53;5088657;27;45968;-65
2023/06/09 08:23:02;;;;;;;;;19.50;19.00;;;;;23.31;61.77;98681.06;5092626;27;45404;-64
2023/06/09 08:25:27;;;;;;;;;21.50;19.75;;;;;23.37;61.49;98682.31;5090908;27;45376;-59
2023/06/09 08:27:52;;;;;;;;;22.50;18.25;;;;;23.41;61.62;98677.47;5093545;27;45495;-58
2023/06/09 08:30:18;;;;;;;;;21.75;21.75;;;;;23.45;61.56;98679.72;5089895;27;45500;-59
2023/06/09 08:32:46;;;;;;;;;22.50;20.25;;;;;23.47;61.21;98675.00;5086384;27;45512;-59
2023/06/09 08:35:12;;;;;;;;;20.25;18.50;;;;;23.53;60.93;98674.41;5074950;27;45448;-60
2023/06/09 08:37:39;;;;;;;;;20.00;18.00;;;;;23.58;60.92;98673.97;5093879;27;45377;-63
2023/06/09 08:40:07;;;;;;;;;16.25;15.75;;;;;23.69;60.69;98672.88;5088100;27;46629;-64
2023/06/09 08:42:34;;;;;;;;;19.50;16.75;;;;;23.75;60.61;98674.94;5095737;27;45355;-64
2023/06/09 08:45:03;;;;;;;;;18.75;18.75;;;;;23.83;60.53;98669.63;5084765;27;45375;-64
2023/06/09 08:47:29;;;;;;;;;32.50;25.75;;;;;23.94;60.76;98666.69;5093145;27;45403;-64
2023/06/09 08:49:57;;;;;;;;;17.75;17.00;;;;;24.07;60.16;98675.19;5086726;27;45554;-64
2023/06/09 08:52:28;;;;;;;;;19.80;17.40;;;;;24.08;59.79;98676.88;5093402;27;45561;-64
2023/06/09 08:54:55;;;;;;;;;16.75;16.00;;;;;24.08;60.20;98679.59;5073207;27;45445;-64
2023/06/09 08:57:21;;;;;;;;;19.50;17.00;;;;;24.14;59.66;98692.41;5090997;27;45430;-64
2023/06/09 08:59:48;;;;;;;;;12.50;12.50;;;;;24.12;59.38;98694.44;5088550;27;46285;-64
2023/06/09 09:02:14;;;;;;;;;14.80;13.80;;;;;24.07;59.80;98685.97;5092811;27;45414;-64
2023/06/09 09:04:40;;;;;;;;;19.50;16.00;;;;;24.04;59.88;98688.97;5084794;27;45590;-64
2023/06/09 09:07:09;;;;;;;;;16.75;16.75;;;;;24.01;59.69;98690.13;5091441;27;45580;-64
2023/06/09 09:09:35;;;;;;;;;20.00;17.50;;;;;23.92;59.82;98693.78;5088268;27;45572;-64
2023/06/09 09:12:04;;;;;;;;;17.00;16.50;;;;;23.73;59.99;98687.72;5091685;27;45519;-64
2023/06/09 09:14:30;;;;;;;;;15.75;15.75;;;;;23.60;60.50;98690.81;5092876;27;45439;-64
2023/06/09 09:16:56;;;;;;;;;15.00;14.75;;;;;23.48;60.46;98689.28;5087382;27;45370;-65
2023/06/09 09:19:29;;;;;;;;;15.00;13.00;;;;;23.31;60.70;98689.13;5082674;27;46327;-64
2023/06/09 09:21:55;;;;;;;;;21.80;17.00;;;;;23.23;61.32;98691.75;5092371;27;45436;-63
2023/06/09 09:24:29;;;;;;;;;17.75;16.00;;;;;23.17;61.69;98696.88;5098447;27;45446;-64
2023/06/09 09:26:58;;;;;;;;;16.00;15.75;;;;;23.05;62.37;98700.78;5078534;27;45477;-65
2023/06/09 09:29:28;;;;;;;;;19.00;16.50;;;;;22.96;63.02;98697.13;5070250;27;46236;-64
2023/06/09 09:32:02;;;;;;;;;16.60;14.80;;;;;22.90;63.34;98698.59;5089249;27;45439;-64
2023/06/09 09:34:31;;;;;;;;;14.00;13.75;;;;;22.87;63.78;98693.50;5074169;27;45895;-64
2023/06/09 09:36:58;;;;;;;;;17.00;16.50;;;;;22.85;63.71;98705.41;5086816;27;45536;-64
2023/06/09 09:39:24;;;;;;;;;20.50;18.00;;;;;22.77;64.77;98699.94;5085029;27;45424;-65
2023/06/09 09:42:10;;;;;;;;;20.00;19.00;;;;;22.68;65.38;98696.25;5098356;27;45681;-65
2023/06/09 09:44:43;;;;;;;;;20.25;17.25;;;;;22.64;65.43;98698.38;5085121;27;45470;-64
2023/06/09 09:47:15;;;;;;;;;21.25;19.50;;;;;22.64;66.41;98690.31;5094497;27;45454;-64
2023/06/09 09:49:53;;;;;;;;;18.50;18.00;;;;;22.69;66.80;98695.25;5087728;27;46480;-64
2023/06/09 09:52:27;;;;;;;;;18.60;17.60;;;;;22.73;67.24;98693.13;5089253;27;45370;-64
2023/06/09 09:55:00;;;;;;;;;19.75;18.50;;;;;22.75;67.10;98685.78;5074692;27;45383;-64
2023/06/09 09:57:29;;;;;;;;;18.25;18.25;;;;;22.81;67.20;98688.72;5080108;27;45520;-64
2023/06/09 09:59:56;;;;;;;;;21.25;19.25;;;;;22.82;66.44;98692.25;5084525;27;45472;-64
2023/06/09 10:02:24;;;;;;;;;20.25;19.25;;;;;22.82;67.39;98682.34;5090850;27;45447;-64
2023/06/09 10:04:50;;;;;;;;;18.00;18.00;;;;;22.83;66.54;98691.25;5086238;27;45531;-64
2023/06/09 10:07:21;;;;;;;;;14.75;14.75;;;;;22.79;66.87;98676.47;5081431;27;45782;-64
2023/06/09 10:09:51;;;;;;;;;23.00;20.00;;;;;22.76;67.39;98676.72;5083154;27;45863;-64
2023/06/09 10:12:18;;;;;;;;;21.75;20.50;;;;;22.75;67.23;98675.03;5072440;27;45306;-64
2023/06/09 10:14:46;;;;;;;;;20.75;19.75;;;;;22.81;66.98;98687.88;5086290;27;45445;-64
2023/06/09 10:17:12;;;;;;;;;18.00;17.50;;;;;22.86;66.79;98680.22;5091812;27;45526;-64
2023/06/09 10:19:40;;;;;;;;;16.50;16.50;;;;;22.91;67.34;98680.63;5085749;27;46619;-64
2023/06/09 10:22:06;;;;;;;;;19.40;18.60;;;;;22.97;67.18;98677.31;5085634;27;45320;-64
2023/06/09 10:24:33;;;;;;;;;19.50;18.75;;;;;23.04;66.57;98680.25;5083697;27;45534;-64
2023/06/09 10:26:59;;;;;;;;;20.00;18.75;;;;;23.07;66.36;98678.13;5088831;27;45537;-64
2023/06/09 10:29:25;;;;;;;;;20.00;19.00;;;;;23.14;66.11;98675.66;5082810;27;45647;-64
2023/06/09 10:31:53;;;;;;;;;17.25;17.00;;;;;23.20;65.89;98675.06;5082823;27;45611;-64
2023/06/09 10:34:20;;;;;;;;;20.25;19.50;;;;;23.18;66.08;98679.75;5084451;27;45574;-65
2023/06/09 10:36:46;;;;;;;;;23.75;21.25;;;;;23.13;65.97;98673.97;5081344;27;45642;-64
2023/06/09 10:39:25;;;;;;;;;19.50;18.75;;;;;23.11;66.41;98668.75;5088767;27;46226;-64
2023/06/09 10:42:07;;;;;;;;;19.50;19.50;;;;;23.11;67.00;98667.91;5081637;27;45456;-64
2023/06/09 10:44:51;;;;;;;;;20.00;18.75;;;;;23.14;66.10;98675.66;5078123;27;45380;-64
2023/06/09 10:47:44;;;;;;;;;22.00;18.25;;;;;23.17;66.83;98673.50;5086247;27;45444;-64
2023/06/09 10:50:22;;;;;;;;;24.25;18.50;;;;;23.21;66.30;98674.06;5089712;27;45716;-64
2023/06/09 10:52:55;;;;;;;;;23.75;20.25;;;;;23.26;66.64;98671.78;5056809;27;45480;-65
2023/06/09 10:55:22;;;;;;;;;21.50;21.50;;;;;23.34;66.16;98669.16;5089792;27;45554;-64
2023/06/09 10:57:50;;;;;;;;;22.00;19.00;;;;;23.41;65.77;98678.31;5087893;27;45399;-65
2023/06/09 11:00:16;;;;;;;;;21.75;20.00;;;;;23.43;64.98;98672.78;5084635;27;45531;-65
2023/06/09 11:02:42;;;;;;;;;21.75;19.00;;;;;23.42;64.99;98673.78;5076553;27;45569;-65
2023/06/09 11:05:08;;;;;;;;;21.00;20.00;;;;;23.40;65.01;98673.94;5082188;27;45536;-65
2023/06/09 11:07:46;;;;;;;;;19.50;17.50;;;;;23.33;64.68;98662.91;5091178;27;45389;-66
2023/06/09 11:10:11;;;;;;;;;21.75;21.25;;;;;23.30;64.74;98665.91;5082475;27;45529;-65
2023/06/09 11:12:36;;;;;;;;;22.75;19.50;;;;;23.30;65.04;98670.44;5085380;27;45462;-66
2023/06/09 11:15:03;;;;;;;;;18.25;16.75;;;;;23.39;64.96;98668.69;5088151;27;45707;-65
2023/06/09 11:17:39;;;;;;;;;18.00;17.00;;;;;23.48;65.08;98660.53;5098680;27;45365;-58